sensor_id;sensor_type;location;lat;lon;timestamp;pressure;altitude;pressure_sealevel;temperature;humidity
3832;BME280;12460;42.662;23.288;2023-04-07T00:05:03;94248.91;;;4.54;42.51
3832;BME280;12460;42.662;23.288;2023-04-07T00:20:07;94244.84;;;4.55;42.75
3832;BME280;12460;42.662;23.288;2023-04-07T00:35:12;94239.28;;;4.55;42.53
3832;BME280;12460;42.662;23.288;2023-04-07T00:50:18;94249.91;;;4.43;43.21
3832;BME280;12460;42.662;23.288;2023-04-07T01:05:59;94240.81;;;4.43;43.02
3832;BME280;12460;42.662;23.288;2023-04-07T01:21:13;94230.97;;;4.42;42.83
3832;BME280;12460;42.662;23.288;2023-04-07T01:36:20;94219.59;;;4.53;43.33
3832;BME280;12460;42.662;23.288;2023-04-07T01:51:26;94213.97;;;4.66;42.52
3832;BME280;12460;42.662;23.288;2023-04-07T02:22:15;94201.44;;;4.72;40.40
3832;BME280;12460;42.662;23.288;2023-04-07T02:37:20;94202.66;;;4.84;40.30
3832;BME280;12460;42.662;23.288;2023-04-07T02:52:26;94218.38;;;5.16;40.53
3832;BME280;12460;42.662;23.288;2023-04-07T03:07:31;94218.44;;;5.23;39.94
3832;BME280;12460;42.662;23.288;2023-04-07T03:22:36;94232.03;;;5.27;40.72
3832;BME280;12460;42.662;23.288;2023-04-07T03:37:46;94214.69;;;5.21;40.34
3832;BME280;12460;42.662;23.288;2023-04-07T03:52:53;94218.22;;;5.01;40.68
3832;BME280;12460;42.662;23.288;2023-04-07T04:08:01;94227.53;;;5.03;40.40
3832;BME280;12460;42.662;23.288;2023-04-07T04:23:08;94226.19;;;5.38;39.88
3832;BME280;12460;42.662;23.288;2023-04-07T04:38:12;94240.03;;;5.51;39.18
3832;BME280;12460;42.662;23.288;2023-04-07T04:53:21;94244.97;;;5.86;39.07
3832;BME280;12460;42.662;23.288;2023-04-07T05:08:31;94262.63;;;6.45;37.51
3832;BME280;12460;42.662;23.288;2023-04-07T05:23:36;94265.31;;;8.07;35.87
3832;BME280;12460;42.662;23.288;2023-04-07T05:38:42;94280.16;;;8.70;33.79
3832;BME280;12460;42.662;23.288;2023-04-07T05:53:51;94287.97;;;10.08;33.82
3832;BME280;12460;42.662;23.288;2023-04-07T06:08:58;94277.22;;;10.73;31.26
3832;BME280;12460;42.662;23.288;2023-04-07T06:24:04;94273.41;;;12.38;28.38
3832;BME280;12460;42.662;23.288;2023-04-07T06:39:10;94268.28;;;13.11;27.03
3832;BME280;12460;42.662;23.288;2023-04-07T06:54:15;94268.88;;;13.88;27.13
3832;BME280;12460;42.662;23.288;2023-04-07T07:09:20;94285.59;;;14.77;24.62
3832;BME280;12460;42.662;23.288;2023-04-07T07:24:25;94292.56;;;16.74;22.78
3832;BME280;12460;42.662;23.288;2023-04-07T07:39:32;94306.53;;;15.79;23.54
3832;BME280;12460;42.662;23.288;2023-04-07T07:54:36;94312.22;;;15.25;24.34
3832;BME280;12460;42.662;23.288;2023-04-07T08:09:41;94322.00;;;14.40;25.18
3832;BME280;12460;42.662;23.288;2023-04-07T08:24:46;94312.28;;;14.95;24.75
3832;BME280;12460;42.662;23.288;2023-04-07T08:39:50;94306.13;;;14.16;25.76
3832;BME280;12460;42.662;23.288;2023-04-07T08:54:55;94304.63;;;15.61;24.09
3832;BME280;12460;42.662;23.288;2023-04-07T09:10:02;94302.97;;;17.29;22.76
3832;BME280;12460;42.662;23.288;2023-04-07T09:25:19;94307.31;;;17.07;22.92
3832;BME280;12460;42.662;23.288;2023-04-07T09:40:26;94322.75;;;16.00;23.92
3832;BME280;12460;42.662;23.288;2023-04-07T09:55:30;94342.56;;;16.56;24.18
3832;BME280;12460;42.662;23.288;2023-04-07T10:10:35;94318.22;;;17.11;23.31
3832;BME280;12460;42.662;23.288;2023-04-07T10:25:39;94319.91;;;16.00;24.79
3832;BME280;12460;42.662;23.288;2023-04-07T10:40:45;94326.31;;;14.93;25.82
3832;BME280;12460;42.662;23.288;2023-04-07T10:55:53;94343.88;;;14.39;27.68
3832;BME280;12460;42.662;23.288;2023-04-07T11:10:59;94338.69;;;14.36;28.21
3832;BME280;12460;42.662;23.288;2023-04-07T11:26:04;94353.84;;;13.81;29.23
3832;BME280;12460;42.662;23.288;2023-04-07T11:41:13;94358.03;;;13.61;30.29
3832;BME280;12460;42.662;23.288;2023-04-07T11:56:18;94340.81;;;13.57;29.91
3832;BME280;12460;42.662;23.288;2023-04-07T12:11:23;94344.88;;;14.53;29.58
3832;BME280;12460;42.662;23.288;2023-04-07T12:26:28;94339.59;;;15.11;28.55
3832;BME280;12460;42.662;23.288;2023-04-07T12:41:33;94347.72;;;14.04;29.91
3832;BME280;12460;42.662;23.288;2023-04-07T12:56:38;94344.66;;;14.30;29.86
3832;BME280;12460;42.662;23.288;2023-04-07T13:11:44;94368.78;;;14.31;29.65
3832;BME280;12460;42.662;23.288;2023-04-07T13:26:49;94364.66;;;12.89;31.84
3832;BME280;12460;42.662;23.288;2023-04-07T13:41:54;94392.97;;;12.26;33.13
3832;BME280;12460;42.662;23.288;2023-04-07T13:56:58;94400.81;;;12.18;34.09
3832;BME280;12460;42.662;23.288;2023-04-07T14:12:03;94418.88;;;11.88;34.91
3832;BME280;12460;42.662;23.288;2023-04-07T14:27:07;94431.81;;;11.22;36.81
3832;BME280;12460;42.662;23.288;2023-04-07T14:42:13;94433.94;;;10.97;37.74
3832;BME280;12460;42.662;23.288;2023-04-07T14:57:17;94452.81;;;10.63;39.06
3832;BME280;12460;42.662;23.288;2023-04-07T15:12:21;94447.91;;;10.38;39.86
3832;BME280;12460;42.662;23.288;2023-04-07T15:27:26;94464.91;;;10.48;40.26
3832;BME280;12460;42.662;23.288;2023-04-07T15:42:30;94469.00;;;10.22;40.60
3832;BME280;12460;42.662;23.288;2023-04-07T15:57:36;94480.78;;;9.89;41.48
3832;BME280;12460;42.662;23.288;2023-04-07T16:12:40;94490.06;;;9.59;42.34
3832;BME280;12460;42.662;23.288;2023-04-07T16:27:44;94506.75;;;9.42;43.15
3832;BME280;12460;42.662;23.288;2023-04-07T16:42:49;94515.97;;;9.27;43.72
3832;BME280;12460;42.662;23.288;2023-04-07T16:57:54;94511.50;;;9.01;43.54
3832;BME280;12460;42.662;23.288;2023-04-07T17:12:59;94547.00;;;8.91;43.67
3832;BME280;12460;42.662;23.288;2023-04-07T17:28:03;94562.72;;;8.87;44.27
3832;BME280;12460;42.662;23.288;2023-04-07T17:43:10;94583.66;;;8.78;44.94
3832;BME280;12460;42.662;23.288;2023-04-07T17:58:15;94588.47;;;8.70;44.55
3832;BME280;12460;42.662;23.288;2023-04-07T18:13:19;94614.09;;;8.74;44.58
3832;BME280;12460;42.662;23.288;2023-04-07T18:28:23;94616.53;;;8.78;44.63
3832;BME280;12460;42.662;23.288;2023-04-07T18:43:27;94632.41;;;8.75;45.17
3832;BME280;12460;42.662;23.288;2023-04-07T18:58:31;94637.22;;;8.52;46.53
3832;BME280;12460;42.662;23.288;2023-04-07T19:13:36;94609.97;;;8.17;48.13
3832;BME280;12460;42.662;23.288;2023-04-07T19:28:40;94629.53;;;7.73;49.44
3832;BME280;12460;42.662;23.288;2023-04-07T19:43:45;94620.44;;;7.52;50.07
3832;BME280;12460;42.662;23.288;2023-04-07T19:58:50;94625.78;;;7.71;49.41
3832;BME280;12460;42.662;23.288;2023-04-07T20:13:54;94636.84;;;7.77;49.90
3832;BME280;12460;42.662;23.288;2023-04-07T20:28:59;94634.50;;;7.60;49.95
3832;BME280;12460;42.662;23.288;2023-04-07T20:44:04;94644.59;;;7.63;49.88
3832;BME280;12460;42.662;23.288;2023-04-07T20:59:08;94653.13;;;7.86;49.73
3832;BME280;12460;42.662;23.288;2023-04-07T21:14:12;94650.25;;;8.06;48.84
3832;BME280;12460;42.662;23.288;2023-04-07T21:29:16;94659.09;;;8.18;48.47
3832;BME280;12460;42.662;23.288;2023-04-07T21:44:20;94640.63;;;8.22;49.63
3832;BME280;12460;42.662;23.288;2023-04-07T21:59:25;94654.81;;;8.24;49.65
3832;BME280;12460;42.662;23.288;2023-04-07T22:14:30;94662.28;;;8.22;49.51
3832;BME280;12460;42.662;23.288;2023-04-07T22:29:35;94671.50;;;8.02;49.63
3832;BME280;12460;42.662;23.288;2023-04-07T22:44:39;94657.13;;;7.69;50.35
3832;BME280;12460;42.662;23.288;2023-04-07T22:59:44;94659.34;;;7.43;50.69
3832;BME280;12460;42.662;23.288;2023-04-07T23:14:49;94651.88;;;7.66;50.20
3832;BME280;12460;42.662;23.288;2023-04-07T23:29:53;94631.19;;;7.69;49.71
3832;BME280;12460;42.662;23.288;2023-04-07T23:44:58;94624.84;;;7.68;50.27
